createdAt,value
2022-12-19T00:01:22.635Z,59.52
2022-12-19T00:03:53.658Z,59.57
2022-12-19T00:06:20.836Z,59.64
2022-12-19T00:08:50.165Z,59.84
2022-12-19T00:11:18.403Z,59.75
2022-12-19T00:13:45.506Z,59.82
2022-12-19T00:16:15.892Z,59.77
2022-12-19T00:18:46.760Z,59.82
2022-12-19T00:21:16.268Z,59.93
2022-12-19T00:23:43.820Z,60.02
2022-12-19T00:26:16.738Z,60.09
2022-12-19T00:28:47.135Z,60.13
2022-12-19T00:31:15.679Z,60.03
2022-12-19T00:33:43.699Z,60.16
2022-12-19T00:36:14.519Z,60.22
2022-12-19T00:38:44.173Z,60.41
2022-12-19T00:41:20.680Z,60.30
2022-12-19T00:43:52.664Z,60.61
2022-12-19T00:46:19.398Z,60.78
2022-12-19T00:48:45.934Z,60.74
2022-12-19T00:51:17.900Z,60.86
2022-12-19T00:53:46.150Z,60.76
2022-12-19T00:56:17.848Z,60.98
2022-12-19T00:58:47.373Z,60.98
2022-12-19T01:01:29.288Z,61.12
2022-12-19T01:04:27.360Z,61.18
2022-12-19T01:06:44.938Z,61.13
2022-12-19T01:09:12.374Z,61.19
2022-12-19T01:11:57.591Z,61.20
2022-12-19T01:14:24.656Z,61.38
2022-12-19T01:16:51.960Z,61.52
2022-12-19T01:19:19.587Z,61.66
2022-12-19T01:21:46.655Z,61.62
2022-12-19T01:24:13.746Z,61.66
2022-12-19T01:26:49.151Z,61.80
2022-12-19T01:29:15.652Z,61.60
2022-12-19T01:31:42.337Z,61.65
2022-12-19T01:34:09.127Z,61.70
2022-12-19T01:36:39.643Z,61.68
2022-12-19T01:39:07.584Z,61.79
2022-12-19T01:41:34.910Z,61.61
2022-12-19T01:44:04.827Z,61.77
2022-12-19T01:46:42.395Z,61.90
2022-12-19T01:49:29.844Z,61.94
2022-12-19T01:52:10.975Z,61.76
2022-12-19T01:54:42.011Z,61.81
2022-12-19T01:57:13.246Z,61.79
2022-12-19T01:59:47.737Z,61.99
2022-12-19T02:02:23.404Z,61.87
2022-12-19T02:04:50.064Z,61.85
2022-12-19T02:07:18.566Z,62.04
2022-12-19T02:09:46.872Z,62.01
2022-12-19T02:12:14.311Z,61.89
2022-12-19T02:14:41.858Z,62.11
2022-12-19T02:17:41.876Z,62.04
2022-12-19T02:20:24.077Z,62.01
2022-12-19T02:23:27.999Z,62.18
2022-12-19T02:26:32.927Z,62.23
2022-12-19T02:29:23.730Z,61.95
2022-12-19T02:32:18.580Z,62.18
2022-12-19T02:35:04.224Z,62.06
2022-12-19T02:37:36.061Z,62.08
2022-12-19T02:40:50.074Z,62.16
2022-12-19T02:43:23.874Z,62.11
2022-12-19T02:45:52.637Z,62.26
2022-12-19T02:48:20.077Z,62.18
2022-12-19T02:50:48.446Z,62.22
2022-12-19T02:53:18.223Z,62.34
2022-12-19T02:56:01.373Z,62.22
2022-12-19T02:58:57.011Z,62.28
2022-12-19T03:01:40.146Z,62.36
2022-12-19T03:04:19.241Z,62.20
2022-12-19T03:07:03.786Z,62.44
2022-12-19T03:10:06.370Z,62.32
2022-12-19T03:12:39.427Z,62.53
2022-12-19T03:15:07.198Z,62.34
2022-12-19T03:17:38.126Z,62.58
2022-12-19T03:20:10.416Z,62.75
2022-12-19T03:22:37.107Z,62.65
2022-12-19T03:25:03.813Z,62.63
2022-12-19T03:27:35.644Z,62.71
2022-12-19T03:30:08.762Z,62.64
2022-12-19T03:32:38.164Z,62.60
2022-12-19T03:35:14.288Z,62.66
2022-12-19T03:37:43.166Z,62.67
2022-12-19T03:40:22.103Z,62.75
2022-12-19T03:43:11.372Z,62.85
2022-12-19T03:46:02.690Z,62.88
2022-12-19T03:48:45.257Z,62.64
2022-12-19T03:51:37.754Z,62.99
2022-12-19T03:54:18.818Z,62.92
2022-12-19T03:57:02.135Z,63.02
2022-12-19T03:59:39.361Z,62.98
2022-12-19T04:02:08.193Z,63.08
2022-12-19T04:04:43.589Z,63.14
2022-12-19T04:07:12.818Z,63.25
2022-12-19T04:09:42.535Z,63.33
2022-12-19T04:12:15.371Z,63.47
2022-12-19T04:14:42.239Z,63.31
2022-12-19T04:17:26.890Z,63.45
2022-12-19T04:20:12.840Z,63.59
2022-12-19T04:22:51.153Z,63.23
2022-12-19T04:25:29.154Z,63.25
2022-12-19T04:28:01.853Z,63.19
2022-12-19T04:30:28.432Z,63.21
2022-12-19T04:32:55.442Z,63.45
2022-12-19T04:35:22.017Z,63.58
2022-12-19T04:37:48.579Z,63.51
2022-12-19T04:40:15.386Z,63.55
2022-12-19T04:42:41.954Z,63.66
2022-12-19T04:45:09.403Z,63.68
2022-12-19T04:47:36.082Z,63.78
2022-12-19T04:50:02.588Z,63.87
2022-12-19T04:52:29.094Z,63.74
2022-12-19T04:54:55.618Z,63.95
2022-12-19T04:57:22.222Z,63.60
2022-12-19T04:59:48.726Z,64.00
2022-12-19T05:02:15.335Z,64.05
2022-12-19T05:04:41.958Z,64.32
2022-12-19T05:07:08.622Z,64.12
2022-12-19T05:09:36.669Z,64.13
2022-12-19T05:12:03.352Z,64.17
2022-12-19T05:14:29.954Z,64.24
2022-12-19T05:17:01.565Z,64.10
2022-12-19T05:19:28.424Z,64.36
2022-12-19T05:21:55.126Z,64.38
2022-12-19T05:24:22.026Z,64.32
2022-12-19T05:26:49.745Z,64.35
2022-12-19T05:29:17.198Z,64.50
2022-12-19T05:31:43.820Z,64.34
2022-12-19T05:34:10.446Z,64.66
2022-12-19T05:36:36.928Z,64.34
2022-12-19T05:39:03.451Z,64.44
2022-12-19T05:41:30.024Z,64.56
2022-12-19T05:43:56.883Z,64.47
2022-12-19T05:46:24.691Z,64.71
2022-12-19T05:48:52.509Z,64.67
2022-12-19T05:51:19.741Z,64.78
2022-12-19T05:53:46.562Z,64.74
2022-12-19T05:56:16.015Z,64.81
2022-12-19T05:58:43.366Z,64.79
2022-12-19T06:01:12.885Z,64.78
2022-12-19T06:03:39.839Z,65.08
2022-12-19T06:06:12.218Z,65.15
2022-12-19T06:08:39.447Z,64.93
2022-12-19T06:11:07.650Z,64.91
2022-12-19T06:13:35.970Z,64.96
2022-12-19T06:16:05.644Z,64.96
2022-12-19T06:18:32.336Z,65.00
2022-12-19T06:21:00.790Z,65.16
2022-12-19T06:23:30.742Z,65.33
2022-12-19T06:25:58.366Z,65.37
2022-12-19T06:28:26.403Z,65.33
2022-12-19T06:30:56.185Z,65.41
2022-12-19T06:33:23.511Z,65.36
2022-12-19T06:36:05.737Z,65.62
2022-12-19T06:38:33.395Z,65.72
2022-12-19T06:41:19.139Z,65.67
2022-12-19T06:43:49.197Z,65.61
2022-12-19T06:46:19.824Z,65.51
2022-12-19T06:48:46.447Z,65.57
2022-12-19T06:51:12.997Z,65.58
2022-12-19T06:53:40.295Z,65.78
2022-12-19T06:56:07.111Z,65.74
2022-12-19T06:58:34.775Z,65.58
2022-12-19T07:01:01.699Z,65.69
2022-12-19T07:03:41.292Z,65.66
2022-12-19T07:06:08.701Z,65.65
2022-12-19T07:08:35.248Z,65.59
2022-12-19T07:11:01.811Z,65.73
2022-12-19T07:13:28.405Z,65.86
2022-12-19T07:15:58.575Z,65.85
2022-12-19T07:18:25.312Z,65.91
2022-12-19T07:20:51.991Z,65.64
2022-12-19T07:23:21.049Z,65.90
2022-12-19T07:25:47.726Z,66.00
2022-12-19T07:28:15.191Z,65.82
2022-12-19T07:30:41.811Z,66.00
2022-12-19T07:33:11.080Z,65.59
2022-12-19T07:35:38.512Z,66.03
2022-12-19T07:38:06.553Z,65.86
2022-12-19T07:40:34.070Z,65.98
2022-12-19T07:43:02.711Z,65.89
2022-12-19T07:45:30.049Z,65.76
2022-12-19T07:48:00.618Z,65.72
2022-12-19T07:50:27.296Z,65.92
2022-12-19T07:52:53.806Z,65.98
2022-12-19T07:55:20.361Z,65.74
2022-12-19T07:57:46.999Z,65.73
2022-12-19T08:00:14.180Z,65.74
2022-12-19T08:02:40.966Z,65.83
2022-12-19T08:05:08.071Z,65.62
2022-12-19T08:07:34.726Z,65.68
2022-12-19T08:10:01.254Z,65.73
2022-12-19T08:12:27.789Z,65.86
2022-12-19T08:14:57.295Z,65.86
2022-12-19T08:17:24.293Z,65.59
2022-12-19T08:19:50.869Z,65.88
2022-12-19T08:22:17.411Z,65.83
2022-12-19T08:24:44.041Z,65.55
2022-12-19T08:27:10.659Z,65.60
2022-12-19T08:29:37.142Z,65.57
2022-12-19T08:32:03.738Z,65.78
2022-12-19T08:34:30.344Z,65.67
2022-12-19T08:36:56.903Z,65.73
2022-12-19T08:39:23.397Z,65.48
2022-12-19T08:41:49.936Z,65.57
2022-12-19T08:44:16.451Z,65.78
2022-12-19T08:46:49.417Z,65.74
2022-12-19T08:49:16.744Z,65.74
2022-12-19T08:51:43.434Z,65.58
2022-12-19T08:54:11.932Z,65.77
2022-12-19T08:56:46.158Z,65.44
2022-12-19T08:59:15.840Z,65.53
2022-12-19T09:01:46.852Z,65.53
2022-12-19T09:04:51.721Z,65.43
2022-12-19T09:06:59.965Z,65.47
2022-12-19T09:09:27.140Z,65.40
2022-12-19T09:11:53.597Z,65.53
2022-12-19T09:14:21.053Z,65.58
2022-12-19T09:16:49.253Z,65.51
2022-12-19T09:19:16.563Z,65.54
2022-12-19T09:21:43.531Z,65.67
2022-12-19T09:24:11.234Z,65.60
2022-12-19T09:26:42.165Z,65.79
2022-12-19T09:29:20.683Z,65.84
2022-12-19T09:31:55.354Z,65.69
2022-12-19T09:34:22.950Z,65.57
2022-12-19T09:36:50.966Z,65.55
2022-12-19T09:39:18.416Z,65.52
2022-12-19T09:41:47.930Z,65.46
2022-12-19T09:44:30.908Z,65.57
2022-12-19T09:47:01.101Z,65.82
2022-12-19T09:49:41.746Z,65.76
2022-12-19T09:52:37.088Z,65.52
2022-12-19T09:55:06.123Z,65.41
2022-12-19T09:57:39.552Z,65.91
2022-12-19T10:00:15.124Z,65.81
2022-12-19T10:02:48.590Z,65.71
2022-12-19T10:06:20.262Z,65.78
2022-12-19T10:08:17.849Z,65.75
2022-12-19T10:12:40.778Z,65.85
2022-12-19T10:14:26.249Z,65.59
2022-12-19T10:17:24.794Z,65.59
2022-12-19T10:20:10.402Z,65.68
2022-12-19T10:22:51.312Z,65.59
2022-12-19T10:25:29.678Z,65.67
2022-12-19T10:28:15.747Z,65.29
2022-12-19T10:31:31.162Z,65.43
2022-12-19T10:34:21.150Z,65.37
2022-12-19T10:39:55.267Z,65.49
2022-12-19T10:42:30.841Z,65.29
2022-12-19T10:45:02.596Z,65.43
2022-12-19T10:47:31.269Z,65.21
2022-12-19T10:50:01.402Z,65.07
2022-12-19T10:52:52.507Z,65.42
2022-12-19T10:55:29.967Z,65.20
2022-12-19T10:58:00.380Z,65.32
2022-12-19T11:00:28.298Z,65.17
2022-12-19T11:03:19.111Z,64.90
2022-12-19T11:05:57.509Z,65.16
2022-12-19T11:08:31.380Z,65.12
2022-12-19T11:12:02.632Z,64.89
2022-12-19T11:18:10.853Z,64.79
2022-12-19T11:20:06.086Z,64.81
2022-12-19T11:29:25.675Z,65.15
2022-12-19T11:29:30.743Z,64.85
2022-12-19T11:29:44.967Z,64.95
2022-12-19T11:30:47.265Z,64.90
2022-12-19T11:32:32.264Z,64.83
2022-12-19T11:34:19.396Z,64.82
2022-12-19T11:36:57.746Z,64.81
2022-12-19T11:39:48.082Z,65.00
2022-12-19T11:42:29.408Z,64.78
2022-12-19T11:45:32.450Z,65.08
2022-12-19T11:48:10.352Z,64.98
2022-12-19T11:50:48.413Z,64.76
2022-12-19T11:53:19.914Z,65.02
2022-12-19T11:56:16.506Z,64.95
2022-12-19T11:58:50.317Z,64.74
2022-12-19T12:01:51.168Z,64.96
2022-12-19T12:04:35.773Z,65.10
2022-12-19T12:07:14.249Z,65.07
2022-12-19T12:14:22.676Z,64.91
2022-12-19T12:17:53.243Z,64.63
2022-12-19T12:31:01.055Z,64.56
2022-12-19T12:31:17.623Z,64.72
2022-12-19T12:31:22.672Z,64.56
2022-12-19T12:31:48.725Z,64.72
2022-12-19T12:35:07.037Z,64.25
2022-12-19T12:35:56.481Z,64.32
2022-12-19T12:38:39.046Z,64.37
2022-12-19T12:41:47.208Z,64.17
2022-12-19T12:44:14.092Z,64.09
2022-12-19T12:46:47.870Z,64.37
2022-12-19T12:49:44.071Z,64.40
2022-12-19T12:52:20.085Z,64.03
2022-12-19T12:54:49.455Z,64.40
2022-12-19T12:57:20.295Z,64.39
2022-12-19T13:00:08.591Z,64.07
2022-12-19T13:02:35.939Z,64.15
2022-12-19T13:05:23.370Z,63.95
2022-12-19T13:07:55.074Z,64.18
2022-12-19T13:10:27.667Z,63.73
2022-12-19T13:13:16.612Z,63.61
2022-12-19T13:15:46.033Z,63.48
2022-12-19T13:19:01.752Z,63.52
2022-12-19T13:22:09.280Z,63.43
2022-12-19T13:24:54.650Z,63.19
2022-12-19T13:27:21.158Z,63.24
2022-12-19T13:29:56.823Z,63.23
2022-12-19T13:32:23.815Z,63.30
2022-12-19T13:36:15.465Z,63.40
2022-12-19T13:39:51.157Z,63.36
2022-12-19T13:41:27.095Z,62.89
2022-12-19T13:43:59.898Z,62.93
2022-12-19T13:46:31.194Z,62.71
2022-12-19T13:49:03.780Z,62.80
2022-12-19T13:51:41.267Z,62.56
2022-12-19T13:54:19.288Z,62.69
2022-12-19T13:56:45.840Z,62.59
2022-12-19T13:59:13.080Z,62.48
2022-12-19T14:01:40.853Z,62.04
2022-12-19T14:04:16.402Z,62.13
2022-12-19T14:06:45.469Z,61.95
2022-12-19T14:11:28.391Z,62.12
2022-12-19T14:12:49.268Z,61.97
2022-12-19T14:15:13.972Z,61.87
2022-12-19T14:17:40.833Z,61.91
2022-12-19T14:22:02.840Z,61.75
2022-12-19T14:23:14.211Z,61.71
2022-12-19T14:28:21.384Z,61.64
2022-12-19T14:28:47.577Z,61.67
2022-12-19T14:31:19.682Z,61.66
2022-12-19T14:36:39.991Z,61.32
2022-12-19T14:39:27.870Z,61.43
2022-12-19T14:42:19.274Z,61.15
2022-12-19T14:52:35.577Z,61.55
2022-12-19T14:54:05.399Z,61.04
2022-12-19T14:54:25.032Z,61.20
2022-12-19T14:54:51.480Z,61.31
2022-12-19T14:58:59.258Z,61.13
2022-12-19T15:01:33.542Z,61.29
2022-12-19T15:04:49.547Z,60.80
2022-12-19T15:07:07.232Z,60.54
2022-12-19T15:11:08.132Z,61.07
2022-12-19T15:14:54.529Z,60.73
2022-12-19T15:16:23.084Z,60.48
2022-12-19T15:18:51.531Z,60.58
2022-12-19T15:21:18.043Z,60.30
2022-12-19T15:23:45.342Z,60.59
2022-12-19T15:26:18.231Z,60.46
2022-12-19T15:28:50.777Z,60.02
2022-12-19T15:31:24.281Z,60.47
2022-12-19T15:34:32.367Z,60.35
2022-12-19T15:36:37.600Z,60.17
2022-12-19T15:39:04.531Z,59.95
2022-12-19T15:41:31.455Z,59.76
2022-12-19T15:44:06.131Z,59.97
2022-12-19T15:46:33.549Z,59.84
2022-12-19T15:49:01.154Z,59.70
2022-12-19T15:51:27.913Z,59.78
2022-12-19T15:53:56.979Z,60.01
2022-12-19T15:56:35.119Z,59.73
2022-12-19T15:59:03.271Z,59.78
2022-12-19T16:01:32.037Z,59.85
2022-12-19T16:04:00.766Z,59.61
2022-12-19T16:06:28.502Z,59.78
2022-12-19T16:08:55.792Z,59.96
2022-12-19T16:11:24.459Z,59.65
2022-12-19T16:13:56.725Z,59.67
2022-12-19T16:16:23.448Z,59.66
2022-12-19T16:18:50.115Z,59.68
2022-12-19T16:21:27.530Z,59.72
2022-12-19T16:23:59.943Z,59.77
2022-12-19T16:26:33.490Z,59.90
2022-12-19T16:29:00.787Z,59.85
2022-12-19T16:31:28.022Z,59.74
2022-12-19T16:33:54.944Z,59.74
2022-12-19T16:36:21.578Z,59.55
2022-12-19T16:38:48.181Z,59.34
2022-12-19T16:41:18.260Z,59.44
2022-12-19T16:43:45.661Z,59.20
2022-12-19T16:46:23.798Z,59.28
2022-12-19T16:48:50.723Z,59.40
2022-12-19T16:51:20.054Z,59.10
2022-12-19T16:53:47.831Z,59.55
2022-12-19T16:56:34.541Z,59.19
2022-12-19T16:59:08.325Z,59.00
2022-12-19T17:01:35.767Z,59.33
2022-12-19T17:04:02.434Z,59.06
2022-12-19T17:06:28.968Z,58.92
2022-12-19T17:08:55.559Z,59.06
2022-12-19T17:11:25.885Z,58.88
2022-12-19T17:14:01.309Z,59.28
2022-12-19T17:16:28.917Z,59.03
2022-12-19T17:18:57.681Z,59.12
2022-12-19T17:21:24.267Z,58.88
2022-12-19T17:23:51.599Z,58.67
2022-12-19T17:26:18.625Z,58.83
2022-12-19T17:28:48.205Z,58.87
2022-12-19T17:31:23.265Z,58.90
2022-12-19T17:33:50.367Z,59.14
2022-12-19T17:36:21.391Z,59.06
2022-12-19T17:38:51.312Z,58.78
2022-12-19T17:41:20.961Z,59.06
2022-12-19T17:43:47.608Z,58.73
2022-12-19T17:46:22.749Z,58.79
2022-12-19T17:48:52.131Z,58.87
2022-12-19T17:51:21.309Z,58.69
2022-12-19T17:53:48.060Z,58.73
2022-12-19T17:56:17.179Z,58.48
2022-12-19T17:58:44.268Z,58.75
2022-12-19T18:01:22.453Z,58.71
2022-12-19T18:03:51.032Z,58.53
2022-12-19T18:06:18.170Z,58.33
2022-12-19T18:08:44.919Z,58.75
2022-12-19T18:11:19.866Z,58.54
2022-12-19T18:13:47.471Z,58.26
2022-12-19T18:16:17.257Z,58.53
2022-12-19T18:18:44.506Z,58.25
2022-12-19T18:21:15.004Z,58.32
2022-12-19T18:23:41.775Z,58.56
2022-12-19T18:26:10.737Z,58.23
2022-12-19T18:28:38.140Z,58.42
2022-12-19T18:31:14.309Z,58.43
2022-12-19T18:33:43.523Z,58.35
2022-12-19T18:36:25.102Z,58.14
2022-12-19T18:38:52.862Z,58.18
2022-12-19T18:41:19.995Z,57.96
2022-12-19T18:43:47.090Z,58.29
2022-12-19T18:46:16.703Z,58.03
2022-12-19T18:48:45.490Z,58.37
2022-12-19T18:51:17.754Z,58.06
2022-12-19T18:53:46.067Z,58.33
2022-12-19T18:56:13.084Z,57.91
2022-12-19T18:58:40.048Z,57.91
2022-12-19T19:01:13.479Z,58.06
2022-12-19T19:03:41.824Z,58.14
2022-12-19T19:06:19.027Z,58.23
2022-12-19T19:08:45.954Z,57.77
2022-12-19T19:11:28.580Z,57.99
2022-12-19T19:13:55.382Z,57.99
2022-12-19T19:16:26.909Z,58.11
2022-12-19T19:18:55.701Z,57.77
2022-12-19T19:21:25.484Z,58.04
2022-12-19T19:24:00.279Z,57.88
2022-12-19T19:26:26.876Z,57.82
2022-12-19T19:28:53.401Z,58.15
2022-12-19T19:31:23.456Z,57.91
2022-12-19T19:33:56.098Z,58.03
2022-12-19T19:36:26.861Z,57.80
2022-12-19T19:38:56.008Z,57.80
2022-12-19T19:41:29.171Z,57.70
2022-12-19T19:43:57.243Z,58.00
2022-12-19T19:46:23.787Z,58.18
2022-12-19T19:48:50.287Z,57.84
2022-12-19T19:51:17.324Z,58.31
2022-12-19T19:53:44.145Z,58.00
2022-12-19T19:56:10.881Z,58.25
2022-12-19T19:58:37.474Z,58.13
2022-12-19T20:01:12.240Z,58.37
2022-12-19T20:03:41.885Z,58.36
2022-12-19T20:06:10.254Z,58.38
2022-12-19T20:08:40.057Z,58.41
2022-12-19T20:11:08.979Z,58.11
2022-12-19T20:13:35.952Z,58.06
2022-12-19T20:16:08.450Z,58.10
2022-12-19T20:18:36.457Z,58.11
2022-12-19T20:21:07.806Z,58.31
2022-12-19T20:23:38.113Z,58.27
2022-12-19T20:26:06.283Z,58.65
2022-12-19T20:28:33.268Z,58.51
2022-12-19T20:31:00.466Z,58.75
2022-12-19T20:33:27.587Z,58.57
2022-12-19T20:35:58.182Z,58.34
2022-12-19T20:38:25.206Z,58.46
2022-12-19T20:40:55.659Z,58.65
2022-12-19T20:43:23.445Z,58.74
2022-12-19T20:45:50.581Z,58.58
2022-12-19T20:48:17.476Z,58.50
2022-12-19T20:50:44.195Z,58.73
2022-12-19T20:53:10.753Z,58.66
2022-12-19T20:55:37.333Z,58.37
2022-12-19T20:58:03.928Z,58.19
2022-12-19T21:00:30.512Z,58.46
2022-12-19T21:05:52.214Z,58.39
2022-12-19T21:08:18.715Z,58.22
2022-12-19T21:10:45.219Z,58.24
2022-12-19T21:13:11.846Z,58.38
2022-12-19T21:15:38.520Z,58.57
2022-12-19T21:18:05.224Z,58.34
2022-12-19T21:20:36.564Z,58.08
2022-12-19T21:23:03.147Z,58.23
2022-12-19T21:25:29.908Z,57.93
2022-12-19T21:27:56.442Z,57.76
2022-12-19T21:30:22.998Z,57.85
2022-12-19T21:32:49.784Z,58.05
2022-12-19T21:35:16.355Z,57.79
2022-12-19T21:37:49.715Z,57.72
2022-12-19T21:40:16.749Z,58.14
2022-12-19T21:42:43.278Z,58.28
2022-12-19T21:45:10.798Z,57.84
2022-12-19T21:47:39.617Z,58.27
2022-12-19T21:50:09.230Z,58.40
2022-12-19T21:52:36.653Z,58.00
2022-12-19T21:55:04.557Z,58.25
2022-12-19T21:57:31.057Z,58.18
2022-12-19T21:59:57.592Z,58.63
2022-12-19T22:02:24.268Z,58.35
2022-12-19T22:04:51.000Z,58.40
2022-12-19T22:07:17.553Z,58.35
2022-12-19T22:09:45.295Z,58.54
2022-12-19T22:12:12.878Z,58.68
2022-12-19T22:14:39.627Z,58.62
2022-12-19T22:17:06.179Z,58.42
2022-12-19T22:19:32.794Z,58.68
2022-12-19T22:21:59.491Z,58.91
2022-12-19T22:24:26.090Z,58.74
2022-12-19T22:26:52.678Z,58.93
2022-12-19T22:29:19.794Z,58.67
2022-12-19T22:31:47.275Z,59.02
2022-12-19T22:34:16.376Z,58.76
2022-12-19T22:36:43.653Z,58.74
2022-12-19T22:39:13.023Z,58.51
2022-12-19T22:41:40.227Z,58.98
2022-12-19T22:44:08.599Z,58.91
2022-12-19T22:46:37.537Z,58.59
2022-12-19T22:49:06.107Z,58.68
2022-12-19T22:51:34.885Z,58.99
2022-12-19T22:54:04.274Z,58.86
2022-12-19T22:56:32.240Z,58.81
2022-12-19T22:59:01.064Z,58.89
2022-12-19T23:01:34.220Z,58.37
2022-12-19T23:04:02.601Z,58.40
2022-12-19T23:06:32.257Z,58.45
2022-12-19T23:08:59.053Z,58.57
2022-12-19T23:11:29.366Z,58.94
2022-12-19T23:13:55.964Z,58.52
2022-12-19T23:16:22.569Z,58.44
2022-12-19T23:18:49.053Z,58.67
2022-12-19T23:21:21.466Z,58.89
2022-12-19T23:23:51.096Z,58.92
2022-12-19T23:26:20.658Z,58.81
2022-12-19T23:28:56.441Z,58.99
2022-12-19T23:31:23.586Z,59.06
2022-12-19T23:33:50.446Z,58.61
2022-12-19T23:36:32.256Z,58.57
2022-12-19T23:39:04.598Z,58.86
2022-12-19T23:41:31.211Z,58.68
2022-12-19T23:43:57.954Z,58.76
2022-12-19T23:46:26.395Z,58.57
2022-12-19T23:48:53.449Z,58.76
2022-12-19T23:51:23.007Z,58.51
2022-12-19T23:53:49.494Z,58.21
2022-12-19T23:56:24.603Z,58.08
2022-12-19T23:58:51.741Z,58.10
